CDT,Max TemperatureF,Mean TemperatureF,Min TemperatureF,Max Dew PointF,MeanDew PointF,Min DewpointF,Max Humidity, Mean Humidity, Min Humidity, Max Sea Level PressureIn, Mean Sea Level PressureIn, Min Sea Level PressureIn, Max VisibilityMiles, Mean VisibilityMiles, Min VisibilityMiles, Max Wind SpeedMPH, Mean Wind SpeedMPH, Max Gust SpeedMPH,PrecipitationIn, CloudCover, Events, WindDirDegrees
2013-5-1,66,53,39,45,40,31,90,64,39,30.33,30.14,29.96,10,10,10,16,8,25,0.00,3,,354
2013-5-2,38,34,31,33,30,28,92,81,73,30.37,30.33,30.28,10,10,3,16,11,24,0.03,7,Rain,1
2013-5-3,41,36,30,40,34,28,98,95,91,30.28,30.14,30.06,10,9,4,12,8,,0.23,8,Rain,27
2013-5-4,71,55,40,47,42,39,97,70,33,30.10,30.07,30.03,10,10,3,18,7,22,0.00,2,,71
2013-5-5,69,56,42,44,40,36,93,63,31,30.12,30.08,30.03,10,10,3,9,3,17,0.00,0,,70
2013-5-6,72,54,37,42,38,32,95,58,25,30.12,30.06,30.01,10,10,10,8,1,,0.00,0,,145
2013-5-7,76,58,40,41,35,28,90,46,18,30.08,30.04,30.00,10,10,10,12,2,,0.00,0,,120
2013-5-8,77,58,39,44,38,35,86,47,23,30.04,30.00,29.96,10,10,10,8,1,,0.00,1,,192
2013-5-9,60,51,40,52,47,39,95,82,48,30.01,29.97,29.94,10,10,7,18,5,24,0.34,6,Rain,30
2013-5-10,60,48,37,41,37,31,95,71,35,30.03,29.97,29.91,10,10,10,18,9,22,0.02,5,Rain,21
2013-5-11,47,41,35,44,31,18,94,68,34,30.03,29.91,29.79,10,10,7,21,8,31,0.03,7,Rain,297
2013-5-12,50,40,31,24,20,15,72,48,26,30.12,30.07,30.03,10,10,10,17,10,28,0.00,5,,319
2013-5-13,59,40,21,33,23,18,88,50,23,30.17,30.06,29.85,10,10,10,10,2,17,0.00,2,,183
2013-5-14,79,59,39,54,43,32,80,51,26,29.84,29.67,29.51,10,10,10,15,6,23,0.00,1,Rain,147
2013-5-15,72,64,57,45,40,34,60,39,27,29.86,29.77,29.54,10,10,10,14,9,23,0.00,0,,278
2013-5-16,79,60,42,47,41,36,91,51,26,30.04,29.93,29.85,10,10,7,16,3,23,0.00,3,,109
2013-5-17,52,49,45,49,44,34,93,82,51,30.13,30.09,30.02,10,10,5,13,9,21,0.34,7,Rain,90
2013-5-18,73,60,48,60,53,46,91,78,62,30.10,30.03,29.93,10,10,7,13,7,18,0.00,4,,118
2013-5-19,82,67,52,61,58,52,98,70,48,29.95,29.84,29.69,10,8,2,16,7,24,0.00,2,,137
2013-5-20,80,69,59,60,57,53,97,68,40,29.79,29.68,29.62,10,10,5,22,9,38,0.15,3,Rain,171
2013-5-21,72,66,59,61,56,53,91,73,53,29.71,29.63,29.57,10,10,4,18,8,24,0.09,7,Rain-Thunderstorm,210
2013-5-22,60,54,49,57,53,47,97,94,86,29.87,29.72,29.68,10,10,5,16,4,22,0.47,7,Rain,43
2013-5-23,58,48,39,47,35,28,96,64,32,30.33,30.13,29.88,10,10,10,18,11,26,0.09,3,Rain,9
2013-5-24,61,44,28,37,31,27,96,58,33,30.46,30.37,30.29,10,10,10,10,3,,0.00,0,,107
2013-5-25,63,52,42,39,36,32,86,56,34,30.40,30.34,30.30,10,10,10,13,6,21,0.00,2,,119
2013-5-26,63,48,32,38,35,32,95,57,34,30.33,30.26,30.18,10,10,10,16,5,23,0.00,2,,101
2013-5-27,58,53,48,49,42,33,98,70,50,30.19,30.04,29.93,10,10,4,22,10,32,0.10,8,Rain,101
2013-5-28,55,52,48,54,51,48,100,97,93,29.93,29.80,29.74,10,3,0,12,7,,0.11,8,Fog-Rain,92
2013-5-29,82,68,53,63,58,54,100,85,44,29.91,29.85,29.80,10,6,0,15,3,24,0.66,7,Fog-Rain-Thunderstorm,189
2013-5-30,81,70,61,67,63,59,97,84,57,29.87,29.77,29.70,10,10,2,32,10,40,0.88,4,Rain-Thunderstorm,160
2013-5-31,77,68,60,60,58,54,90,71,48,29.75,29.71,29.65,10,10,10,21,12,29,0.01,5,,185